KSNS/SNS METAR and TAF weather

Enter ICAO airport designator
Station Type Date Time Source
KSNS METAR 2019/10/15 21:53 UTC NOAA

KSNS 152153Z 29010KT 10SM CLR 18/09 A3002 RMK AO2 SLP174 T01780094


Station Type Date Time Source
KSNS Decoded METAR 2019/10/15 21:53 UTC NOAA

SALINAS MUNICIPAL AIRPORT, CA, United States (KSNS) 36-40N 121-36W 30M
Oct 15, 2019 - 05:53 PM EDT / 2019.10.15 2153 UTC
Wind: from the WNW (290 degrees) at 12 MPH (10 KT):0
Visibility: 10 mile(s):0
Sky conditions: clear
Temperature: 64.0 F (17.8 C)
Dew Point: 48.9 F (9.4 C)
Relative Humidity: 57%
Pressure (altimeter): 30.02 in. Hg (1016 hPa)
ob: KSNS 152153Z 29010KT 10SM CLR 18/09 A3002 RMK AO2 SLP174 T01780094
cycle: 22

Station Type Date Time Source
KSNS TAF 2019/10/15 18:42 UTC NOAA

TAF KSNS 151740Z 1518/1618 VRB03KT P6SM FEW006
FM152000 31010KT P6SM SKC
FM160300 31005KT P6SM SCT008
TEMPO 1603/1605 BKN008
FM160500 VRB04KT P6SM BKN006
FM160800 12004KT 4SM BR OVC003
FM161700 12005KT P6SM BKN006

Example: see airport list